createdAt,value
2017-09-10T00:00:14.616Z,58.00
2017-09-10T00:02:49.237Z,57.90
2017-09-10T00:05:24.178Z,57.80
2017-09-10T00:07:58.668Z,57.90
2017-09-10T00:10:33.023Z,57.70
2017-09-10T00:13:07.738Z,57.80
2017-09-10T00:15:42.311Z,58.10
2017-09-10T00:18:16.923Z,57.60
2017-09-10T00:20:51.510Z,57.60
2017-09-10T00:23:26.214Z,57.60
2017-09-10T00:26:00.735Z,57.60
2017-09-10T00:28:35.300Z,57.70
2017-09-10T00:31:09.784Z,57.60
2017-09-10T00:33:44.375Z,57.70
2017-09-10T00:36:18.894Z,57.60
2017-09-10T00:38:53.601Z,57.60
2017-09-10T00:41:28.194Z,57.90
2017-09-10T00:44:02.914Z,57.70
2017-09-10T00:46:37.496Z,57.90
2017-09-10T00:49:11.928Z,58.30
2017-09-10T00:51:45.799Z,58.40
2017-09-10T00:54:19.722Z,58.80
2017-09-10T00:56:54.192Z,58.90
2017-09-10T00:59:28.803Z,58.90
2017-09-10T01:02:03.405Z,59.00
2017-09-10T01:04:37.985Z,59.30
2017-09-10T01:07:12.666Z,59.30
2017-09-10T01:09:47.091Z,59.20
2017-09-10T01:12:21.353Z,59.30
2017-09-10T01:14:56.424Z,59.40
2017-09-10T01:17:31.184Z,59.30
2017-09-10T01:20:14.842Z,59.30
2017-09-10T01:22:48.780Z,59.00
2017-09-10T01:25:23.374Z,58.80
2017-09-10T01:27:57.884Z,58.80
2017-09-10T01:30:32.470Z,58.80
2017-09-10T01:33:07.091Z,59.00
2017-09-10T01:35:41.630Z,59.00
2017-09-10T01:38:16.298Z,58.90
2017-09-10T01:40:50.798Z,58.90
2017-09-10T01:43:25.459Z,58.80
2017-09-10T01:45:59.974Z,58.60
2017-09-10T01:48:34.494Z,58.50
2017-09-10T01:51:08.653Z,58.30
2017-09-10T01:53:43.136Z,58.00
2017-09-10T01:56:17.658Z,58.10
2017-09-10T01:58:52.162Z,58.60
2017-09-10T02:01:26.703Z,58.60
2017-09-10T02:04:01.391Z,58.30
2017-09-10T02:06:36.082Z,58.60
2017-09-10T02:09:10.742Z,58.40
2017-09-10T02:11:45.282Z,58.20
2017-09-10T02:14:20.165Z,58.20
2017-09-10T02:16:54.594Z,58.50
2017-09-10T02:19:29.270Z,58.40
2017-09-10T02:22:03.765Z,58.50
2017-09-10T02:24:38.187Z,58.50
2017-09-10T02:27:12.743Z,58.90
2017-09-10T02:29:47.366Z,58.80
2017-09-10T02:32:22.700Z,58.60
2017-09-10T02:34:57.258Z,58.50
2017-09-10T02:37:31.834Z,58.50
2017-09-10T02:40:15.896Z,58.50
2017-09-10T02:42:50.327Z,58.40
2017-09-10T02:45:24.839Z,58.40
2017-09-10T02:47:59.455Z,58.50
2017-09-10T02:50:34.063Z,58.60
2017-09-10T02:53:08.660Z,58.80
2017-09-10T02:55:43.290Z,58.80
2017-09-10T02:58:17.917Z,58.90
2017-09-10T03:00:52.496Z,59.00
2017-09-10T03:03:27.043Z,59.30
2017-09-10T03:06:01.645Z,59.40
2017-09-10T03:08:36.306Z,59.60
2017-09-10T03:11:10.798Z,59.60
2017-09-10T03:13:45.220Z,59.50
2017-09-10T03:16:19.912Z,59.70
2017-09-10T03:18:54.355Z,59.80
2017-09-10T03:21:28.951Z,59.60
2017-09-10T03:24:03.466Z,59.70
2017-09-10T03:26:38.066Z,59.90
2017-09-10T03:29:12.722Z,59.70
2017-09-10T03:31:47.350Z,60.00
2017-09-10T03:34:22.114Z,60.10
2017-09-10T03:36:56.579Z,60.10
2017-09-10T03:39:31.248Z,59.90
2017-09-10T03:42:05.838Z,59.80
2017-09-10T03:44:40.174Z,59.60
2017-09-10T03:47:14.706Z,59.80
2017-09-10T03:49:49.081Z,59.70
2017-09-10T03:52:23.943Z,59.90
2017-09-10T03:54:58.534Z,60.00
2017-09-10T03:57:32.986Z,60.20
2017-09-10T04:00:14.957Z,60.20
2017-09-10T04:02:49.570Z,60.00
2017-09-10T04:05:26.042Z,60.10
2017-09-10T04:08:00.673Z,59.80
2017-09-10T04:10:35.378Z,60.00
2017-09-10T04:13:09.943Z,59.80
2017-09-10T04:15:44.539Z,59.90
2017-09-10T04:18:19.098Z,60.00
2017-09-10T04:20:53.140Z,60.10
2017-09-10T04:23:27.641Z,60.50
2017-09-10T04:26:02.171Z,60.50
2017-09-10T04:28:36.616Z,60.10
2017-09-10T04:31:10.463Z,60.10
2017-09-10T04:33:45.099Z,59.90
2017-09-10T04:36:19.352Z,59.80
2017-09-10T04:38:53.970Z,59.60
2017-09-10T04:41:28.569Z,59.60
2017-09-10T04:44:02.811Z,59.60
2017-09-10T04:46:37.174Z,59.70
2017-09-10T04:49:11.779Z,59.50
2017-09-10T04:51:46.503Z,59.70
2017-09-10T04:54:21.151Z,59.70
2017-09-10T04:56:55.732Z,59.80
2017-09-10T04:59:30.334Z,59.60
2017-09-10T05:02:04.576Z,59.50
2017-09-10T05:04:39.274Z,59.20
2017-09-10T05:07:13.818Z,58.70
2017-09-10T05:09:48.486Z,58.80
2017-09-10T05:12:23.129Z,58.60
2017-09-10T05:14:57.670Z,58.20
2017-09-10T05:17:32.181Z,58.10
2017-09-10T05:20:15.402Z,58.00
2017-09-10T05:22:50.854Z,57.90
2017-09-10T05:25:24.668Z,57.80
2017-09-10T05:27:59.229Z,57.80
2017-09-10T05:30:33.131Z,57.70
2017-09-10T05:33:07.406Z,57.60
2017-09-10T05:35:42.035Z,57.70
2017-09-10T05:38:16.576Z,57.50
2017-09-10T05:40:51.150Z,57.20
2017-09-10T05:43:25.576Z,57.20
2017-09-10T05:45:59.964Z,57.10
2017-09-10T05:48:34.290Z,56.90
2017-09-10T05:51:08.854Z,56.80
2017-09-10T05:53:43.326Z,56.80
2017-09-10T05:56:18.626Z,56.60
2017-09-10T05:58:53.107Z,56.60
2017-09-10T06:01:27.602Z,56.40
2017-09-10T06:04:02.250Z,55.90
2017-09-10T06:06:36.724Z,55.90
2017-09-10T06:09:11.299Z,55.50
2017-09-10T06:11:45.891Z,55.20
2017-09-10T06:14:20.513Z,55.10
2017-09-10T06:16:55.079Z,54.70
2017-09-10T06:19:29.830Z,54.50
2017-09-10T06:22:04.306Z,54.40
2017-09-10T06:24:38.759Z,54.20
2017-09-10T06:27:13.394Z,53.90
2017-09-10T06:29:47.946Z,54.00
2017-09-10T06:32:22.554Z,53.70
2017-09-10T06:34:57.140Z,53.10
2017-09-10T06:37:31.656Z,52.90
2017-09-10T06:42:56.986Z,52.30
2017-09-10T06:45:31.564Z,51.90
2017-09-10T06:48:06.097Z,51.70
2017-09-10T06:50:40.611Z,51.10
2017-09-10T06:53:15.243Z,50.50
2017-09-10T06:55:49.857Z,50.40
2017-09-10T06:58:24.446Z,50.10
2017-09-10T07:00:58.982Z,49.50
2017-09-10T07:03:33.715Z,49.50
2017-09-10T07:06:08.298Z,48.80
2017-09-10T07:08:43.732Z,48.80
2017-09-10T07:11:18.231Z,48.70
2017-09-10T07:13:52.883Z,48.70
2017-09-10T07:16:27.415Z,48.60
2017-09-10T07:19:02.067Z,48.00
2017-09-10T07:21:36.519Z,48.10
2017-09-10T07:24:10.749Z,47.60
2017-09-10T07:26:45.316Z,47.60
2017-09-10T07:29:19.978Z,47.40
2017-09-10T07:31:54.629Z,47.20
2017-09-10T07:34:29.082Z,47.30
2017-09-10T07:37:03.680Z,47.20
2017-09-10T07:39:38.309Z,47.60
2017-09-10T07:42:12.818Z,48.00
2017-09-10T07:44:47.376Z,48.10
2017-09-10T07:47:21.643Z,47.20
2017-09-10T07:49:56.291Z,46.90
2017-09-10T07:52:30.906Z,46.50
2017-09-10T07:55:21.801Z,45.20
2017-09-10T07:57:56.282Z,44.70
2017-09-10T08:00:30.831Z,43.50
2017-09-10T08:03:05.401Z,43.20
2017-09-10T08:05:39.942Z,42.60
2017-09-10T08:08:14.386Z,42.30
2017-09-10T08:10:48.874Z,42.30
2017-09-10T08:13:23.575Z,41.70
2017-09-10T08:15:57.931Z,42.40
2017-09-10T08:18:32.396Z,43.40
2017-09-10T08:21:06.990Z,43.30
2017-09-10T08:23:41.333Z,43.70
2017-09-10T08:26:15.925Z,43.80
2017-09-10T08:28:50.434Z,43.50
2017-09-10T08:31:25.090Z,43.30
2017-09-10T08:33:59.717Z,42.90
2017-09-10T08:36:34.216Z,42.20
2017-09-10T08:39:08.639Z,42.00
2017-09-10T08:41:43.196Z,41.30
2017-09-10T08:44:17.881Z,40.30
2017-09-10T08:46:52.436Z,40.80
2017-09-10T08:49:27.094Z,40.20
2017-09-10T08:52:01.734Z,40.10
2017-09-10T08:54:36.546Z,39.60
2017-09-10T08:57:11.177Z,40.20
2017-09-10T08:59:46.223Z,40.70
2017-09-10T09:02:21.059Z,40.80
2017-09-10T09:04:55.685Z,40.80
2017-09-10T09:07:30.252Z,40.80
2017-09-10T09:10:14.182Z,41.10
2017-09-10T09:12:48.437Z,40.60
2017-09-10T09:15:22.762Z,39.40
2017-09-10T09:17:57.195Z,38.30
2017-09-10T09:20:31.789Z,37.70
2017-09-10T09:23:06.380Z,38.20
2017-09-10T09:25:40.929Z,38.70
2017-09-10T09:28:15.577Z,39.00
2017-09-10T09:30:50.222Z,39.50
2017-09-10T09:33:24.666Z,39.70
2017-09-10T09:35:59.234Z,40.20
2017-09-10T09:38:33.790Z,40.80
2017-09-10T09:41:08.318Z,40.00
2017-09-10T09:43:42.867Z,38.50
2017-09-10T09:46:17.466Z,37.40
2017-09-10T09:48:52.302Z,36.90
2017-09-10T09:51:26.752Z,36.40
2017-09-10T09:54:01.182Z,36.70
2017-09-10T09:56:35.824Z,36.70
2017-09-10T09:59:10.520Z,36.50
2017-09-10T10:01:45.043Z,35.80
2017-09-10T10:04:19.525Z,34.60
2017-09-10T10:06:54.058Z,32.80
2017-09-10T10:09:28.600Z,33.00
2017-09-10T10:12:03.172Z,32.90
2017-09-10T10:14:37.510Z,33.30
2017-09-10T10:17:12.150Z,34.00
2017-09-10T10:19:46.779Z,34.30
2017-09-10T10:22:21.290Z,35.30
2017-09-10T10:24:55.872Z,36.10
2017-09-10T10:27:30.405Z,36.50
2017-09-10T10:30:13.414Z,37.30
2017-09-10T10:32:47.882Z,38.30
2017-09-10T10:35:22.418Z,38.60
2017-09-10T10:37:56.927Z,39.20
2017-09-10T10:40:31.476Z,39.60
2017-09-10T10:43:05.782Z,40.40
2017-09-10T10:45:40.370Z,40.80
2017-09-10T10:48:15.086Z,41.20
2017-09-10T10:50:49.661Z,41.70
2017-09-10T10:53:24.252Z,42.60
2017-09-10T10:55:58.782Z,42.60
2017-09-10T10:58:33.356Z,42.90
2017-09-10T11:01:07.803Z,43.00
2017-09-10T11:03:42.392Z,42.80
2017-09-10T11:06:16.883Z,42.60
2017-09-10T11:08:51.440Z,42.60
2017-09-10T11:11:26.071Z,42.60
2017-09-10T11:14:00.636Z,43.10
2017-09-10T11:16:35.142Z,43.20
2017-09-10T11:19:09.754Z,42.90
2017-09-10T11:21:44.303Z,43.50
2017-09-10T11:24:18.802Z,43.60
2017-09-10T11:26:53.335Z,43.50
2017-09-10T11:29:27.761Z,43.10
2017-09-10T11:32:02.359Z,42.60
2017-09-10T11:34:36.948Z,42.60
2017-09-10T11:37:11.502Z,42.20
2017-09-10T11:39:45.935Z,42.10
2017-09-10T11:42:20.666Z,42.20
2017-09-10T11:44:55.195Z,42.10
2017-09-10T11:47:29.794Z,41.90
2017-09-10T11:50:05.989Z,41.00
2017-09-10T11:52:47.263Z,40.20
2017-09-10T11:55:22.194Z,40.30
2017-09-10T11:57:56.831Z,40.30
2017-09-10T12:00:31.411Z,40.50
2017-09-10T12:03:05.866Z,40.20
2017-09-10T12:05:40.248Z,40.00
2017-09-10T12:08:14.710Z,39.80
2017-09-10T12:10:49.354Z,39.40
2017-09-10T12:13:24.046Z,38.30
2017-09-10T12:15:58.654Z,38.30
2017-09-10T12:18:33.117Z,39.00
2017-09-10T12:21:07.734Z,38.20
2017-09-10T12:23:42.463Z,37.60
2017-09-10T12:26:16.983Z,37.20
2017-09-10T12:28:51.603Z,37.50
2017-09-10T12:31:26.232Z,38.20
2017-09-10T12:34:00.798Z,38.50
2017-09-10T12:36:35.323Z,38.50
2017-09-10T12:39:09.896Z,39.10
2017-09-10T12:41:44.492Z,40.20
2017-09-10T12:44:19.176Z,40.10
2017-09-10T12:46:53.788Z,40.90
2017-09-10T12:49:28.551Z,41.60
2017-09-10T12:52:03.014Z,41.90
2017-09-10T12:54:37.556Z,42.60
2017-09-10T12:57:12.065Z,43.30
2017-09-10T12:59:46.423Z,43.70
2017-09-10T13:02:21.010Z,44.60
2017-09-10T13:04:55.659Z,44.90
2017-09-10T13:07:30.172Z,45.00
2017-09-10T13:10:13.734Z,46.10
2017-09-10T13:12:48.315Z,46.50
2017-09-10T13:15:22.921Z,46.30
2017-09-10T13:17:57.346Z,46.30
2017-09-10T13:20:31.910Z,46.60
2017-09-10T13:23:06.531Z,46.90
2017-09-10T13:25:41.051Z,47.20
2017-09-10T13:28:15.618Z,47.60
2017-09-10T13:30:50.176Z,47.90
2017-09-10T13:33:24.694Z,47.80
2017-09-10T13:35:59.219Z,48.00
2017-09-10T13:38:33.770Z,48.00
2017-09-10T13:41:08.338Z,48.10
2017-09-10T13:43:42.919Z,47.90
2017-09-10T13:46:17.406Z,47.90
2017-09-10T13:48:51.898Z,48.20
2017-09-10T13:51:26.458Z,48.30
2017-09-10T13:54:00.923Z,48.60
2017-09-10T13:56:35.578Z,48.90
2017-09-10T13:59:10.130Z,48.80
2017-09-10T14:01:44.799Z,49.20
2017-09-10T14:04:19.422Z,49.20
2017-09-10T14:06:54.031Z,49.50
2017-09-10T14:09:28.313Z,49.40
2017-09-10T14:12:02.862Z,50.00
2017-09-10T14:14:37.379Z,50.10
2017-09-10T14:17:11.957Z,50.10
2017-09-10T14:19:46.459Z,50.30
2017-09-10T14:22:20.935Z,50.50
2017-09-10T14:24:55.390Z,50.40
2017-09-10T14:27:30.041Z,50.80
2017-09-10T14:32:46.694Z,50.90
2017-09-10T14:35:21.272Z,51.40
2017-09-10T14:37:55.780Z,51.30
2017-09-10T14:40:30.331Z,51.20
2017-09-10T14:43:04.902Z,51.40
2017-09-10T14:45:39.497Z,51.00
2017-09-10T14:48:14.163Z,51.20
2017-09-10T14:50:48.670Z,51.50
2017-09-10T14:53:23.314Z,51.20
2017-09-10T14:55:57.866Z,51.40
2017-09-10T14:58:32.526Z,51.60
2017-09-10T15:01:07.152Z,52.10
2017-09-10T15:03:41.770Z,52.40
2017-09-10T15:06:16.353Z,52.50
2017-09-10T15:08:50.808Z,52.80
2017-09-10T15:11:25.434Z,52.80
2017-09-10T15:14:00.099Z,53.10
2017-09-10T15:16:34.686Z,53.40
2017-09-10T15:19:09.331Z,53.40
2017-09-10T15:21:44.230Z,53.40
2017-09-10T15:24:18.822Z,53.20
2017-09-10T15:26:53.434Z,53.20
2017-09-10T15:29:27.850Z,53.00
2017-09-10T15:32:02.315Z,53.40
2017-09-10T15:34:37.046Z,53.20
2017-09-10T15:37:11.671Z,53.40
2017-09-10T15:39:46.275Z,53.40
2017-09-10T15:42:21.295Z,53.30
2017-09-10T15:44:55.826Z,53.30
2017-09-10T15:47:30.442Z,53.20
2017-09-10T15:50:14.678Z,53.10
2017-09-10T15:52:49.137Z,53.30
2017-09-10T15:55:23.507Z,53.30
2017-09-10T15:57:57.898Z,53.30
2017-09-10T16:00:32.371Z,53.30
2017-09-10T16:03:06.734Z,53.30
2017-09-10T16:05:41.309Z,53.30
2017-09-10T16:08:15.830Z,53.40
2017-09-10T16:10:50.585Z,53.20
2017-09-10T16:13:25.256Z,53.20
2017-09-10T16:15:59.854Z,53.30
2017-09-10T16:18:34.540Z,53.10
2017-09-10T16:21:09.128Z,53.20
2017-09-10T16:23:43.624Z,53.40
2017-09-10T16:26:18.230Z,53.40
2017-09-10T16:28:52.742Z,53.50
2017-09-10T16:31:27.392Z,53.60
2017-09-10T16:34:02.122Z,53.80
2017-09-10T16:36:36.695Z,53.90
2017-09-10T16:39:11.244Z,54.30
2017-09-10T16:41:45.780Z,54.30
2017-09-10T16:44:20.113Z,54.40
2017-09-10T16:46:54.651Z,54.40
2017-09-10T16:49:29.258Z,54.80
2017-09-10T16:52:03.868Z,55.10
2017-09-10T16:54:38.446Z,55.40
2017-09-10T16:57:13.103Z,55.50
2017-09-10T16:59:47.746Z,55.70
2017-09-10T17:02:22.402Z,55.80
2017-09-10T17:04:56.983Z,56.20
2017-09-10T17:07:31.604Z,56.50
2017-09-10T17:10:14.223Z,57.20
2017-09-10T17:12:48.737Z,56.90
2017-09-10T17:15:23.297Z,56.60
2017-09-10T17:17:57.930Z,56.90
2017-09-10T17:20:32.522Z,57.00
2017-09-10T17:23:06.954Z,56.90
2017-09-10T17:25:41.499Z,56.90
2017-09-10T17:28:16.034Z,57.00
2017-09-10T17:30:50.554Z,57.20
2017-09-10T17:33:25.473Z,57.20
2017-09-10T17:36:00.091Z,57.20
2017-09-10T17:38:34.733Z,57.40
2017-09-10T17:41:09.335Z,57.70
2017-09-10T17:43:44.049Z,57.80
2017-09-10T17:46:18.735Z,57.80
2017-09-10T17:48:53.276Z,57.70
2017-09-10T17:51:27.753Z,57.80
2017-09-10T17:54:02.282Z,57.80
2017-09-10T17:56:36.907Z,57.90
2017-09-10T17:59:11.428Z,58.20
2017-09-10T18:01:45.963Z,58.20
2017-09-10T18:04:20.568Z,58.40
2017-09-10T18:06:55.139Z,58.20
2017-09-10T18:09:29.767Z,58.30
2017-09-10T18:12:04.330Z,58.40
2017-09-10T18:14:38.838Z,58.50
2017-09-10T18:17:13.367Z,58.50
2017-09-10T18:19:47.682Z,58.80
2017-09-10T18:22:22.238Z,58.80
2017-09-10T18:24:56.380Z,58.80
2017-09-10T18:27:31.110Z,58.90
2017-09-10T18:30:14.504Z,59.10
2017-09-10T18:32:49.095Z,59.20
2017-09-10T18:35:23.753Z,59.40
2017-09-10T18:37:58.388Z,59.20
2017-09-10T18:40:32.971Z,59.20
2017-09-10T18:43:07.483Z,59.30
2017-09-10T18:45:42.224Z,59.30
2017-09-10T18:48:16.697Z,59.20
2017-09-10T18:50:51.075Z,59.20
2017-09-10T18:53:25.571Z,59.30
2017-09-10T18:56:00.072Z,59.40
2017-09-10T18:58:34.533Z,59.30
2017-09-10T19:01:09.060Z,59.30
2017-09-10T19:03:43.401Z,59.40
2017-09-10T19:06:17.926Z,59.20
2017-09-10T19:08:52.421Z,59.40
2017-09-10T19:11:27.022Z,59.40
2017-09-10T19:14:01.782Z,59.40
2017-09-10T19:16:36.776Z,59.40
2017-09-10T19:19:11.074Z,59.40
2017-09-10T19:21:45.574Z,59.60
2017-09-10T19:24:20.133Z,59.90
2017-09-10T19:26:54.646Z,59.90
2017-09-10T19:29:29.276Z,59.70
2017-09-10T19:32:03.718Z,59.80
2017-09-10T19:34:38.367Z,59.60
2017-09-10T19:37:12.860Z,59.70
2017-09-10T19:39:47.321Z,59.90
2017-09-10T19:42:21.843Z,60.00
2017-09-10T19:44:56.442Z,60.90
2017-09-10T19:47:30.887Z,60.10
2017-09-10T19:50:13.726Z,60.40
2017-09-10T19:52:48.278Z,60.60
2017-09-10T19:55:22.800Z,60.40
2017-09-10T19:57:57.298Z,60.50
2017-09-10T20:00:31.837Z,60.60
2017-09-10T20:03:05.931Z,60.70
2017-09-10T20:05:40.393Z,60.50
2017-09-10T20:08:14.890Z,60.60
2017-09-10T20:10:49.490Z,60.80
2017-09-10T20:13:24.125Z,60.70
2017-09-10T20:16:00.638Z,60.70
2017-09-10T20:18:35.242Z,60.80
2017-09-10T20:21:09.586Z,60.70
2017-09-10T20:23:44.048Z,60.70
2017-09-10T20:26:18.623Z,60.90
2017-09-10T20:28:53.131Z,61.00
2017-09-10T20:31:27.773Z,61.20
2017-09-10T20:34:02.431Z,61.00
2017-09-10T20:36:37.101Z,61.10
2017-09-10T20:39:11.763Z,60.90
2017-09-10T20:41:46.288Z,60.70
2017-09-10T20:44:20.644Z,60.60
2017-09-10T20:46:54.974Z,60.60
2017-09-10T20:49:29.538Z,60.60
2017-09-10T20:52:03.902Z,60.50
2017-09-10T20:54:38.546Z,60.60
2017-09-10T20:57:13.071Z,60.70
2017-09-10T20:59:47.674Z,60.90
2017-09-10T21:02:22.306Z,61.20
2017-09-10T21:04:57.011Z,61.40
2017-09-10T21:07:31.605Z,61.90
2017-09-10T21:10:16.146Z,61.40
2017-09-10T21:12:50.612Z,61.60
2017-09-10T21:15:25.394Z,62.30
2017-09-10T21:18:00.095Z,62.80
2017-09-10T21:20:34.641Z,63.90
2017-09-10T21:23:08.936Z,64.30
2017-09-10T21:25:43.336Z,65.60
2017-09-10T21:28:17.707Z,65.50
2017-09-10T21:30:52.230Z,66.20
2017-09-10T21:33:26.827Z,66.50
2017-09-10T21:36:01.349Z,67.30
2017-09-10T21:38:36.227Z,67.40
2017-09-10T21:41:10.822Z,67.80
2017-09-10T21:43:45.095Z,68.40
2017-09-10T21:46:19.448Z,68.40
2017-09-10T21:48:53.878Z,69.90
2017-09-10T21:51:28.177Z,70.50
2017-09-10T21:54:02.715Z,71.50
2017-09-10T21:56:37.338Z,71.80
2017-09-10T21:59:12.236Z,72.00
2017-09-10T22:01:46.426Z,72.20
2017-09-10T22:04:21.168Z,72.40
2017-09-10T22:06:55.703Z,72.80
2017-09-10T22:09:30.189Z,72.90
2017-09-10T22:12:04.806Z,73.20
2017-09-10T22:14:39.355Z,73.50
2017-09-10T22:17:13.906Z,73.90
2017-09-10T22:19:48.470Z,73.60
2017-09-10T22:22:23.122Z,73.50
2017-09-10T22:24:57.720Z,73.70
2017-09-10T22:27:32.282Z,74.10
2017-09-10T22:30:15.063Z,74.70
2017-09-10T22:32:49.634Z,75.00
2017-09-10T22:35:24.231Z,75.60
2017-09-10T22:37:58.786Z,75.60
2017-09-10T22:40:33.386Z,75.10
2017-09-10T22:43:08.064Z,75.30
2017-09-10T22:45:42.809Z,75.10
2017-09-10T22:48:17.453Z,74.80
2017-09-10T22:50:51.815Z,74.70
2017-09-10T22:53:26.273Z,74.90
2017-09-10T22:56:00.766Z,75.00
2017-09-10T22:58:35.358Z,74.70
2017-09-10T23:01:09.975Z,75.20
2017-09-10T23:03:44.525Z,75.10
2017-09-10T23:06:19.212Z,75.00
2017-09-10T23:08:53.787Z,74.50
2017-09-10T23:11:28.414Z,74.60
2017-09-10T23:14:02.968Z,74.40
2017-09-10T23:16:37.500Z,74.80
2017-09-10T23:19:12.011Z,74.10
2017-09-10T23:21:46.501Z,74.30
2017-09-10T23:24:20.966Z,74.60
2017-09-10T23:26:55.579Z,74.60
2017-09-10T23:29:30.241Z,74.60
2017-09-10T23:32:04.917Z,74.40
2017-09-10T23:34:40.741Z,74.60
2017-09-10T23:37:15.428Z,74.30
2017-09-10T23:39:50.196Z,74.50
2017-09-10T23:42:24.847Z,74.50
2017-09-10T23:44:59.411Z,74.30
2017-09-10T23:47:33.891Z,74.30
2017-09-10T23:50:15.034Z,74.40
2017-09-10T23:52:49.578Z,74.20
2017-09-10T23:55:24.149Z,74.00
2017-09-10T23:57:58.741Z,73.70
